createdAt,value
2022-11-14T00:03:30.108Z,9216.00
2022-11-14T00:08:38.620Z,9252.00
2022-11-14T00:13:45.998Z,9216.00
2022-11-14T00:19:01.717Z,9180.00
2022-11-14T00:24:08.925Z,9108.00
2022-11-14T00:29:16.302Z,9108.00
2022-11-14T00:34:25.167Z,9252.00
2022-11-14T00:39:35.253Z,9108.00
2022-11-14T00:44:42.602Z,9288.00
2022-11-14T00:49:49.753Z,9036.00
2022-11-14T00:54:57.034Z,9072.00
2022-11-14T01:00:04.480Z,9252.00
2022-11-14T01:05:11.592Z,-1044.00
2022-11-14T01:10:18.841Z,-1044.00
2022-11-14T01:15:26.154Z,-1080.00
2022-11-14T01:20:33.305Z,-1044.00
2022-11-14T01:25:40.599Z,-1044.00
2022-11-14T01:30:47.936Z,-1080.00
2022-11-14T01:35:55.036Z,-1080.00
2022-11-14T01:41:02.305Z,-1080.00
2022-11-14T01:46:09.705Z,-1044.00
2022-11-14T01:51:16.858Z,-1080.00
2022-11-14T01:56:24.076Z,-1044.00
2022-11-14T02:01:31.419Z,-1080.00
2022-11-14T02:06:38.523Z,-1044.00
2022-11-14T02:11:48.211Z,-1080.00
2022-11-14T02:17:14.756Z,-1044.00
2022-11-14T02:22:02.602Z,-1044.00
2022-11-14T02:27:09.797Z,-1044.00
2022-11-14T02:32:17.129Z,-1080.00
2022-11-14T02:37:24.192Z,-1080.00
2022-11-14T02:42:31.446Z,-1080.00
2022-11-14T02:47:40.792Z,-1080.00
2022-11-14T02:52:47.971Z,-1080.00
2022-11-14T02:57:55.224Z,-1080.00
2022-11-14T03:03:02.611Z,-1044.00
2022-11-14T03:08:10.807Z,-1080.00
2022-11-14T03:13:19.475Z,-1080.00
2022-11-14T03:18:26.985Z,-1080.00
2022-11-14T03:23:33.946Z,-1080.00
2022-11-14T03:28:42.304Z,-1080.00
2022-11-14T03:33:50.555Z,-1080.00
2022-11-14T03:38:58.011Z,-1080.00
2022-11-14T03:44:05.267Z,-1080.00
2022-11-14T03:49:12.569Z,-1044.00
2022-11-14T03:54:19.642Z,-1080.00
2022-11-14T03:59:26.903Z,-1080.00
2022-11-14T04:04:34.264Z,-1044.00
2022-11-14T04:09:41.361Z,-1080.00
2022-11-14T04:14:48.562Z,-1080.00
2022-11-14T04:19:55.932Z,-1080.00
2022-11-14T04:25:02.987Z,-1080.00
2022-11-14T04:30:10.390Z,-1080.00
2022-11-14T04:35:17.704Z,-1044.00
2022-11-14T04:40:26.357Z,-1044.00
2022-11-14T04:45:33.761Z,-1080.00
2022-11-14T04:50:40.998Z,-1080.00
2022-11-14T04:55:48.824Z,-1080.00
2022-11-14T05:00:57.161Z,-1044.00
2022-11-14T05:06:04.436Z,-1044.00
2022-11-14T05:11:24.159Z,-1080.00
2022-11-14T05:16:28.143Z,-1044.00
2022-11-14T05:21:36.611Z,-1044.00
2022-11-14T05:26:43.744Z,-1044.00
2022-11-14T05:31:50.972Z,-1044.00
2022-11-14T05:36:58.428Z,-1080.00
2022-11-14T05:42:05.595Z,-1080.00
2022-11-14T05:47:12.841Z,-1080.00
2022-11-14T05:52:20.117Z,-1080.00
2022-11-14T05:57:27.335Z,-1044.00
2022-11-14T06:02:36.834Z,-1044.00
2022-11-14T06:07:46.243Z,-1080.00
2022-11-14T06:12:57.633Z,-1080.00
2022-11-14T06:18:04.842Z,-1044.00
2022-11-14T06:23:12.917Z,-1044.00
2022-11-14T06:28:20.069Z,-1044.00
2022-11-14T06:33:27.293Z,-1044.00
2022-11-14T06:38:34.530Z,-1044.00
2022-11-14T06:43:41.753Z,-1044.00
2022-11-14T06:48:48.997Z,-1044.00
2022-11-14T06:53:58.126Z,-1044.00
2022-11-14T06:59:05.270Z,-972.00
2022-11-14T07:04:15.180Z,-1008.00
2022-11-14T07:09:22.451Z,-1008.00
2022-11-14T07:14:35.608Z,-972.00
2022-11-14T07:19:42.866Z,-936.00
2022-11-14T07:24:50.048Z,-936.00
2022-11-14T07:29:57.260Z,-1008.00
2022-11-14T07:35:04.470Z,-972.00
2022-11-14T07:40:11.672Z,11664.00
2022-11-14T07:45:18.893Z,12312.00
2022-11-14T07:50:27.927Z,11808.00
2022-11-14T07:55:35.466Z,13284.00
2022-11-14T08:00:42.693Z,14580.00
2022-11-14T08:05:49.858Z,15048.00
2022-11-14T08:10:57.153Z,17208.00
2022-11-14T08:16:07.917Z,18000.00
2022-11-14T08:21:11.667Z,18180.00
2022-11-14T08:26:18.889Z,18036.00
2022-11-14T08:31:26.076Z,17892.00
2022-11-14T08:36:33.347Z,16524.00
2022-11-14T08:41:40.643Z,15012.00
2022-11-14T08:46:47.847Z,13968.00
2022-11-14T08:51:55.126Z,13896.00
2022-11-14T08:57:02.494Z,13356.00
2022-11-14T09:02:09.614Z,13104.00
2022-11-14T09:07:16.947Z,14220.00
2022-11-14T09:12:24.413Z,13536.00
2022-11-14T09:17:39.882Z,12780.00
2022-11-14T09:22:47.050Z,11340.00
2022-11-14T09:27:54.273Z,6912.00
2022-11-14T09:33:02.819Z,5220.00
2022-11-14T09:38:10.523Z,5256.00
2022-11-14T09:43:22.426Z,5112.00
2022-11-14T09:48:30.052Z,4824.00
2022-11-14T09:53:36.841Z,5508.00
2022-11-14T09:58:44.372Z,6552.00
2022-11-14T10:03:51.546Z,8568.00
2022-11-14T10:08:58.825Z,10836.00
2022-11-14T10:14:07.597Z,11088.00
2022-11-14T10:19:14.881Z,14580.00
2022-11-14T10:24:24.256Z,17856.00
2022-11-14T10:29:31.491Z,15948.00
2022-11-14T10:34:40.265Z,16272.00
2022-11-14T10:39:47.500Z,16380.00
2022-11-14T10:44:58.505Z,17352.00
2022-11-14T10:50:05.699Z,18324.00
2022-11-14T10:55:12.908Z,18900.00
2022-11-14T11:00:20.125Z,18468.00
2022-11-14T11:05:28.631Z,17748.00
2022-11-14T11:10:35.928Z,17604.00
2022-11-14T11:15:43.196Z,16776.00
2022-11-14T11:20:50.604Z,17892.00
2022-11-14T11:25:57.781Z,19188.00
2022-11-14T11:31:07.661Z,20016.00
2022-11-14T11:36:14.887Z,18540.00
2022-11-14T11:42:00.839Z,14544.00
2022-11-14T11:46:30.183Z,12780.00
2022-11-14T11:51:37.367Z,12636.00
2022-11-14T11:56:45.014Z,12744.00
2022-11-14T12:01:53.492Z,14076.00
2022-11-14T12:07:02.287Z,14868.00
2022-11-14T12:12:09.458Z,12348.00
2022-11-14T12:17:16.757Z,10296.00
2022-11-14T12:22:29.499Z,11844.00
2022-11-14T12:27:36.773Z,16488.00
2022-11-14T12:32:43.945Z,18108.00
2022-11-14T12:37:55.376Z,16560.00
2022-11-14T12:42:58.351Z,16560.00
2022-11-14T12:48:05.582Z,17172.00
2022-11-14T12:53:13.222Z,15912.00
2022-11-14T12:58:20.426Z,16380.00
2022-11-14T13:03:27.941Z,15264.00
2022-11-14T13:08:34.981Z,15768.00
2022-11-14T13:13:42.244Z,15012.00
2022-11-14T13:18:55.995Z,15336.00
2022-11-14T13:24:04.172Z,17568.00
2022-11-14T13:29:11.378Z,14364.00
2022-11-14T13:34:18.692Z,14904.00
2022-11-14T13:39:25.900Z,15012.00
2022-11-14T13:44:34.639Z,13428.00
2022-11-14T13:49:42.139Z,13212.00
2022-11-14T13:54:49.508Z,10440.00
2022-11-14T13:59:56.818Z,8460.00
2022-11-14T14:05:05.873Z,10296.00
2022-11-14T14:10:14.952Z,7956.00
2022-11-14T14:15:22.175Z,5868.00
2022-11-14T14:20:29.483Z,7524.00
2022-11-14T14:25:36.669Z,4932.00
2022-11-14T14:30:46.736Z,4860.00
2022-11-14T14:35:54.116Z,3960.00
2022-11-14T14:41:01.434Z,4356.00
2022-11-14T14:46:08.653Z,3852.00
2022-11-14T14:51:15.878Z,2700.00
2022-11-14T14:56:23.657Z,1728.00
2022-11-14T15:01:31.582Z,1584.00
2022-11-14T15:06:39.155Z,1008.00
2022-11-14T15:11:46.318Z,576.00
2022-11-14T15:16:53.580Z,612.00
2022-11-14T15:22:00.816Z,0.00
2022-11-14T15:27:09.048Z,-144.00
2022-11-14T15:32:16.256Z,-180.00
2022-11-14T15:37:25.397Z,-180.00
2022-11-14T15:42:32.574Z,-252.00
2022-11-14T15:47:42.080Z,-648.00
2022-11-14T15:52:49.424Z,-864.00
2022-11-14T15:58:21.523Z,-936.00
2022-11-14T16:03:03.818Z,-972.00
2022-11-14T16:08:11.079Z,-1044.00
2022-11-14T16:13:18.558Z,-1044.00
2022-11-14T16:18:29.301Z,-1044.00
2022-11-14T16:23:39.225Z,-1044.00
2022-11-14T16:28:46.919Z,-1044.00
2022-11-14T16:33:54.205Z,-1044.00
2022-11-14T16:39:02.008Z,-1044.00
2022-11-14T16:44:09.279Z,-1044.00
2022-11-14T16:49:23.029Z,-1044.00
2022-11-14T16:54:30.274Z,-1080.00
2022-11-14T16:59:37.642Z,-1044.00
2022-11-14T17:04:45.091Z,-1044.00
2022-11-14T17:09:52.609Z,-1044.00
2022-11-14T17:15:00.067Z,-1044.00
2022-11-14T17:20:07.331Z,-1044.00
2022-11-14T17:25:15.247Z,-1044.00
2022-11-14T17:30:22.842Z,-1080.00
2022-11-14T17:35:30.274Z,-1044.00
2022-11-14T17:40:37.471Z,-1008.00
2022-11-14T17:45:45.407Z,-1044.00
2022-11-14T17:50:52.594Z,-1044.00
2022-11-14T17:55:59.824Z,-1044.00
2022-11-14T18:01:11.326Z,-1008.00
2022-11-14T18:06:18.558Z,8424.00
2022-11-14T18:11:26.035Z,8136.00
2022-11-14T18:17:05.444Z,8424.00
2022-11-14T18:21:45.893Z,8424.00
2022-11-14T18:26:56.855Z,8388.00
2022-11-14T18:32:07.111Z,8316.00
2022-11-14T18:37:14.482Z,8280.00
2022-11-14T18:42:22.057Z,8388.00
2022-11-14T18:47:29.680Z,8316.00
2022-11-14T18:52:37.258Z,8352.00
2022-11-14T18:57:59.856Z,8496.00
2022-11-14T19:03:11.081Z,8244.00
2022-11-14T19:08:18.803Z,8100.00
2022-11-14T19:13:26.894Z,8100.00
2022-11-14T19:18:41.545Z,8028.00
2022-11-14T19:23:50.899Z,8172.00
2022-11-14T19:29:01.306Z,8100.00
2022-11-14T19:34:08.997Z,8172.00
2022-11-14T19:39:16.571Z,8208.00
2022-11-14T19:44:24.250Z,8172.00
2022-11-14T19:49:31.963Z,8136.00
2022-11-14T19:54:39.586Z,8244.00
2022-11-14T19:59:47.403Z,8208.00
2022-11-14T20:04:54.805Z,8172.00
2022-11-14T20:10:02.400Z,8136.00
2022-11-14T20:15:10.141Z,8208.00
2022-11-14T20:20:17.836Z,8208.00
2022-11-14T20:25:25.458Z,8208.00
2022-11-14T20:30:32.930Z,8316.00
2022-11-14T20:35:40.259Z,8244.00
2022-11-14T20:40:47.783Z,8172.00
2022-11-14T20:45:55.184Z,8136.00
2022-11-14T20:51:02.346Z,8172.00
2022-11-14T20:56:09.635Z,8172.00
2022-11-14T21:01:16.978Z,8136.00
2022-11-14T21:06:24.124Z,8280.00
2022-11-14T21:11:31.344Z,8244.00
2022-11-14T21:16:38.641Z,8208.00
2022-11-14T21:21:45.849Z,8244.00
2022-11-14T21:26:53.065Z,8244.00
2022-11-14T21:32:00.301Z,7956.00
2022-11-14T21:37:07.502Z,8100.00
2022-11-14T21:42:18.466Z,8172.00
2022-11-14T21:47:21.951Z,8028.00
2022-11-14T21:52:29.168Z,8136.00
2022-11-14T21:57:36.434Z,8208.00
2022-11-14T22:02:43.684Z,8208.00
2022-11-14T22:07:50.844Z,8208.00
2022-11-14T22:12:57.996Z,8244.00
2022-11-14T22:18:05.224Z,7956.00
2022-11-14T22:23:12.410Z,7740.00
2022-11-14T22:28:19.644Z,7956.00
2022-11-14T22:33:26.893Z,8028.00
2022-11-14T22:38:34.100Z,8100.00
2022-11-14T22:43:41.256Z,8028.00
2022-11-14T22:48:48.475Z,7956.00
2022-11-14T22:53:55.706Z,8028.00
2022-11-14T22:59:02.894Z,7992.00
2022-11-14T23:04:10.151Z,7884.00
2022-11-14T23:09:17.367Z,7992.00
2022-11-14T23:14:24.649Z,8028.00
2022-11-14T23:19:31.938Z,7884.00
2022-11-14T23:24:39.156Z,7920.00
2022-11-14T23:29:46.471Z,7776.00
2022-11-14T23:34:53.688Z,7704.00
2022-11-14T23:40:00.931Z,7704.00
2022-11-14T23:45:08.179Z,7884.00
2022-11-14T23:50:15.460Z,7920.00
2022-11-14T23:55:22.599Z,7884.00
